createdAt,value
2022-08-14T06:36:59.709Z,100471.44
2022-08-14T06:39:36.552Z,100472.00
2022-08-14T06:42:05.855Z,100470.91
2022-08-14T06:44:34.049Z,100468.53
2022-08-14T06:49:56.119Z,100466.69
2022-08-14T06:52:26.472Z,100470.53
2022-08-14T06:55:27.829Z,100466.56
2022-08-14T06:57:57.506Z,100466.44
2022-08-14T07:00:31.147Z,100466.81
2022-08-14T07:03:21.716Z,100463.50
2022-08-14T07:05:58.483Z,100465.28
2022-08-14T07:08:58.752Z,100459.41
2022-08-14T07:11:26.385Z,100465.28
2022-08-14T07:13:56.976Z,100474.34
2022-08-14T07:16:27.762Z,100461.19
2022-08-14T08:54:19.931Z,100475.03
2022-08-14T09:05:17.880Z,100471.19
2022-08-14T09:08:30.141Z,100470.59
2022-08-14T09:11:18.981Z,100465.00
2022-08-14T09:13:52.195Z,100454.47
2022-08-14T09:16:27.228Z,100452.38
2022-08-14T09:18:55.180Z,100441.91
2022-08-14T09:21:31.909Z,100443.75
2022-08-14T09:24:26.799Z,100452.59
2022-08-14T09:27:01.891Z,100448.44
2022-08-14T09:29:39.328Z,100437.16
2022-08-14T09:32:58.783Z,100435.47
2022-08-14T09:35:14.872Z,100437.63
2022-08-14T09:38:00.769Z,100443.28
2022-08-14T09:45:52.939Z,100433.78
2022-08-14T09:57:06.803Z,100414.09
2022-08-14T12:40:34.336Z,100290.66
2022-08-14T12:43:05.681Z,100287.34
2022-08-14T12:45:34.667Z,100291.16
2022-08-14T12:48:20.714Z,100291.69
2022-08-14T12:51:21.614Z,100278.84
2022-08-14T12:53:54.031Z,100274.69
2022-08-14T12:56:33.381Z,100270.41
2022-08-14T12:59:01.957Z,100250.72
2022-08-14T13:02:00.285Z,100256.88
2022-08-14T13:04:32.817Z,100251.78
2022-08-14T13:07:52.806Z,100252.09
2022-08-14T13:10:46.137Z,100257.19
2022-08-14T13:29:00.608Z,100215.47
2022-08-14T13:31:53.641Z,100211.81
2022-08-14T13:34:23.445Z,100194.56
2022-08-14T13:36:59.331Z,100191.69
2022-08-14T13:40:04.814Z,100187.09
2022-08-14T13:42:32.463Z,100178.88
2022-08-14T13:45:02.548Z,100188.09
2022-08-14T13:47:33.513Z,100184.63
2022-08-14T13:50:35.414Z,100191.22
2022-08-14T13:53:03.015Z,100181.41
2022-08-14T13:55:33.711Z,100177.47
2022-08-14T13:58:03.218Z,100163.56
2022-08-14T14:00:53.541Z,100172.78
2022-08-14T14:03:23.035Z,100162.91
2022-08-14T14:05:54.371Z,100165.59
2022-08-14T14:08:45.713Z,100161.28
2022-08-14T14:14:29.542Z,100153.22
2022-08-14T14:17:14.325Z,100143.53
2022-08-14T14:20:34.259Z,100141.75
2022-08-14T14:23:02.551Z,100132.75
2022-08-14T14:25:45.620Z,100126.50
2022-08-14T14:28:24.498Z,100117.06
2022-08-14T14:30:57.249Z,100114.47
2022-08-14T14:33:46.697Z,100114.75
2022-08-14T14:36:21.280Z,100111.56
2022-08-14T14:39:16.913Z,100106.50
2022-08-14T14:41:49.076Z,100105.03
2022-08-14T14:44:24.772Z,100103.94
2022-08-14T14:51:03.352Z,100092.78
2022-08-14T14:53:38.538Z,100092.34
2022-08-14T14:56:50.542Z,100094.34
2022-08-14T14:59:29.329Z,100090.75
2022-08-14T15:02:09.657Z,100093.94
2022-08-14T15:04:38.126Z,100091.97
2022-08-14T15:07:06.169Z,100084.41
2022-08-14T15:10:28.136Z,100078.47
2022-08-14T15:34:42.173Z,100064.13
2022-08-14T15:37:04.692Z,100060.16
2022-08-14T15:39:34.109Z,100059.81
2022-08-14T15:42:14.559Z,100057.84
2022-08-14T15:44:58.616Z,100046.66
2022-08-14T15:47:30.911Z,100053.34
2022-08-14T15:50:05.008Z,100042.66
2022-08-14T15:52:55.538Z,100050.25
2022-08-14T15:55:23.698Z,100045.91
2022-08-14T15:58:02.025Z,100043.16
2022-08-14T16:00:54.609Z,100045.94
2022-08-14T16:03:27.242Z,100046.78
2022-08-14T16:06:10.953Z,100050.75
2022-08-14T16:08:43.956Z,100044.44
2022-08-14T16:28:45.093Z,100032.56
2022-08-14T16:34:56.086Z,100037.31
2022-08-14T16:37:31.013Z,100032.97
2022-08-14T16:40:06.690Z,100029.78
2022-08-14T16:43:04.323Z,100028.59
2022-08-14T16:45:31.457Z,100018.59
2022-08-14T16:48:02.582Z,100020.22
2022-08-14T16:53:18.331Z,100021.84
2022-08-14T16:56:23.023Z,100010.34
2022-08-14T16:58:51.680Z,100010.38
2022-08-14T17:01:25.144Z,100012.75
2022-08-14T17:04:24.426Z,100001.25
2022-08-14T17:07:03.192Z,100003.22
2022-08-14T17:09:43.194Z,100011.19
2022-08-14T17:12:33.427Z,100013.53
2022-08-14T17:15:11.304Z,100013.56
2022-08-14T17:17:42.467Z,100007.22
2022-08-14T17:20:54.836Z,100005.22
2022-08-14T17:23:11.095Z,100000.06
2022-08-14T17:25:39.069Z,100003.25
2022-08-14T17:28:50.151Z,100006.81
2022-08-14T17:35:01.834Z,100013.13
2022-08-14T17:37:34.284Z,100011.94
2022-08-14T17:41:09.988Z,100011.91
2022-08-14T17:44:34.417Z,100010.72
2022-08-14T17:47:14.853Z,100012.31
2022-08-14T17:49:53.822Z,100020.63
2022-08-14T17:52:35.238Z,100008.72
2022-08-14T17:55:12.458Z,100013.91
2022-08-14T17:58:24.696Z,100019.06
2022-08-14T18:05:02.783Z,100026.56
2022-08-14T18:57:22.799Z,100063.25
2022-08-14T19:00:42.916Z,100064.09
2022-08-14T19:03:18.376Z,100064.41
2022-08-14T19:05:54.930Z,100064.38
2022-08-14T19:08:24.939Z,100082.22
2022-08-14T19:10:54.246Z,100092.81
2022-08-14T19:19:41.804Z,100105.84
2022-08-14T19:25:11.660Z,100114.53
2022-08-14T19:28:09.923Z,100114.41
2022-08-14T19:30:39.694Z,100121.47
2022-08-14T19:33:08.959Z,100126.13
2022-08-14T19:36:28.683Z,100121.47
2022-08-14T19:39:04.054Z,100118.47
2022-08-14T19:45:34.249Z,100112.88
2022-08-14T19:48:02.963Z,100124.81
2022-08-14T19:51:03.603Z,100126.41
2022-08-14T19:53:30.947Z,100120.88
2022-08-14T19:56:02.375Z,100128.88
2022-08-14T19:58:54.413Z,100119.41
2022-08-14T20:01:37.085Z,100114.66
2022-08-14T20:04:07.497Z,100109.47
2022-08-14T20:06:43.328Z,100116.53
2022-08-14T20:11:08.261Z,100127.94
2022-08-14T20:15:47.249Z,100122.44
2022-08-14T20:18:48.706Z,100115.31
2022-08-14T20:21:13.663Z,100116.13
2022-08-14T20:23:42.351Z,100121.25
2022-08-14T20:33:02.520Z,100138.47
2022-08-14T20:36:26.532Z,100130.19
2022-08-14T20:39:26.384Z,100130.03
2022-08-14T20:42:28.714Z,100127.63
2022-08-14T20:45:24.974Z,100136.44
2022-08-14T20:47:55.705Z,100127.75
2022-08-14T20:50:29.140Z,100123.53
2022-08-14T20:52:58.547Z,100124.66
2022-08-14T20:55:32.117Z,100118.84
2022-08-14T20:58:09.622Z,100114.97
2022-08-14T21:00:52.642Z,100124.06
2022-08-14T21:03:35.024Z,100132.69
2022-08-14T21:06:19.539Z,100136.50
2022-08-14T21:08:54.442Z,100149.63
